x

Neah Bay, - 6nm North Of Cape Flattery, Wa (traffic Separation Lighted Buoy) (46087) Wave Buoy

12:20pm - Mon 20th Aug 2018 All times are PDT. -7 hours from GMT.

  • Sig Wave height 3.6ft
  • Swell Direction
  • Peak Period 7s
  • Average Period 6s
  • Wind
    2mph, 4mph gusts
  • Sea Temp 54°f
  • Air Temp 53°f
  • Sea Pressure 1017.5mb
  • Neah Bay, - 6nm North Of Cape Flattery, Wa     (traffic Separation Lighted Buoy)
  • Neah Bay, - 6nm North Of Cape Flattery, Wa     (traffic Separation Lighted Buoy)

More Historic Weather Station data

Upgrade to MSW Pro to gain access to the past 30 days of data for over 8000 Wavebouys and Weather Stations around the globe.

Join

Comparision Forecast

View Surf forecast
   
Mon 08/20 12:20pm 3.5ft 7s 6s 2 4 mph 1017.5mb 54f 53f
11:50am 3.5ft 7s 6s 2 2 mph 1017.6mb 53f 53f
11:20am 4ft 7s 6s 2 4 mph 1017.9mb 53f 52f
10:50am 3.5ft 7s 6s 2 2 mph 1017.8mb 53f 52f
10:20am 4ft 8s 6s 2 2 mph 1017.8mb 53f 51f
9:50am 4.5ft 8s 6s 2 2 mph 1017.7mb 52f 51f
9:20am 4.5ft 8s 6s 2 2 mph 1017.7mb 52f 51f
8:50am 4.5ft 8s 6s 2 2 mph 1017.7mb 52f 50f
8:20am 4.5ft 8s 6s 2 4 mph 1017.7mb 52f 50f
7:50am 4.5ft 8s 6s 2 4 mph 1017.7mb 52f 49f
7:20am 5ft 8s 7s 2 4 mph 1017.5mb 52f 49f
6:50am 5ft 8s 7s 4 4 mph 1017.4mb 52f 50f
6:20am 4.5ft 8s  -  4 7 mph 1017.3mb 52f 50f
5:50am 5ft 8s 7s 4 7 mph 1017.1mb 52f 50f
5:20am 5ft 8s 7s 4 4 mph 1017.2mb 52f 51f
4:50am 5ft 8s 7s 4 7 mph 1017.3mb 52f 50f
4:20am 5ft 8s 7s 4 7 mph 1017.3mb 52f 50f
3:50am 5ft 8s 7s 4 7 mph 1017.4mb 52f 51f
3:20am 5ft 8s 7s 9 11 mph 1017mb 52f 51f
2:50am 4.5ft 8s 7s 11 13 mph 1016.9mb 52f 51f
2:20am 4.5ft 8s 7s 11 11 mph 1017mb 52f 51f
1:50am 4.5ft 8s 7s 7 9 mph 1016.9mb 52f 52f
1:20am 4.5ft 7s 7s 7 7 mph 1016.8mb 52f 52f
12:50am 4.5ft 8s 7s 2 4 mph 1016.8mb 52f 52f
12:20am 4.5ft 8s 6s 4 7 mph 1016.7mb 52f 52f
Sun 08/19 11:50pm 4ft 7s 6s 4 7 mph 1016.6mb 52f 52f
11:20pm 4ft 8s 6s 4 7 mph 1016.5mb 52f 52f
10:50pm 4.5ft 7s 6s 7 7 mph 1016.4mb 52f 52f
10:20pm 4ft 7s 6s 4 7 mph 1016.6mb 52f 52f
9:50pm 4.5ft 8s 6s 7 9 mph 1016.6mb 52f 53f
9:20pm 4.5ft 7s 7s 4 7 mph 1016.8mb 52f 52f
8:50pm 5ft 8s 7s 4 7 mph 1016.8mb 52f 52f
8:20pm 4.5ft 8s 6s 4 7 mph 1016.6mb 52f 52f
7:50pm 5ft 8s 6s 4 4 mph 1016.6mb 52f 52f
7:20pm 5ft 8s 7s 4 4 mph 1016.6mb 52f 51f
6:50pm 4.5ft 8s 6s 7 9 mph 1016.7mb 52f 51f
6:20pm 5ft 8s 7s 7 9 mph 1016.9mb 52f 51f
5:50pm 4.5ft 7s 6s 7 9 mph 1016.8mb 52f 52f
5:20pm 5ft 8s 7s 7 9 mph 1017mb 52f 52f
4:50pm 5ft 8s 7s 7 9 mph 1017.3mb 52f 52f
4:20pm 5ft 8s 7s 7 9 mph 1017.5mb 53f 53f
3:50pm 6ft 8s 7s 7 9 mph 1018mb 53f 53f
3:20pm 6ft 8s 7s 4 7 mph 1018.2mb 53f 53f
2:50pm 6ft 8s 7s 7 9 mph 1018.6mb 53f 53f
2:20pm 7ft 8s 7s 7 9 mph 1018.8mb 52f 53f
1:20pm 6ft 8s 7s 7 9 mph 1019.1mb 52f 52f
12:50pm 6ft 8s 7s 7 9 mph 1019.3mb 52f 51f
12:20pm 4.5ft 8s 6s 7 9 mph 1019.4mb 52f 51f
11:50am 5.5ft 8s 7s 4 7 mph 1019.5mb 52f 50f
11:20am 5ft 8s 7s 4 4 mph 1019.4mb 52f 50f
10:50am 5ft 8s 7s 2 4 mph 1019.5mb 52f 49f
10:20am 5ft 8s 7s 4 4 mph 1019.5mb 52f 49f
9:50am 5ft 8s 7s 2 4 mph 1019.4mb 52f 49f
9:20am 6ft 8s 7s 2 4 mph 1019.4mb 51f 49f
8:50am 5ft 8s 7s 2 2 mph 1019.3mb 51f 49f
8:20am 5ft 8s 6s 4 4 mph 1019.2mb 51f 48f
7:50am 5ft 8s 7s  -  2 mph 1019.4mb 51f 48f
7:20am 4.5ft 8s 6s  -  2 mph 1019.3mb 51f 48f
6:50am 5ft 8s 7s 2 2 mph 1019.3mb 51f 49f
6:20am 5.5ft 8s 7s 4 7 mph 1019.2mb 51f 49f
5:50am 5.5ft 8s 7s 2 4 mph 1019.2mb 51f 49f
5:20am 6ft 8s 7s 2 4 mph 1019.2mb 51f 49f
3:50am 4.5ft 8s 7s 2 4 mph 1019.3mb 52f 51f
3:20am 4.5ft 8s 7s 4 7 mph 1019.2mb 51f 51f
2:50am 4.5ft 8s 7s 2 4 mph 1019.3mb 51f 51f
2:20am 4.5ft 8s 7s 4 4 mph 1019.4mb 52f 51f
1:50am 4.5ft 8s 7s 2 4 mph 1019.5mb 52f 51f
1:20am 4.5ft 8s 7s 2 4 mph 1019.4mb 52f 51f
12:50am 5ft 8s 7s 2 4 mph 1019.4mb 52f 50f
12:20am 4.5ft 8s 7s 4 4 mph 1019.5mb 52f 50f
Sat 08/18 11:50pm 4.5ft 7s  -  2 4 mph 1019.5mb 52f 51f
11:20pm 4.5ft 8s 6s 2 4 mph 1019.8mb 52f 51f
10:50pm 4.5ft 8s 6s 2 4 mph 1019.9mb 52f 51f
10:20pm 4ft 8s 6s 4 4 mph 1019.9mb 52f 51f
9:50pm 4ft 8s 6s 7 7 mph 1020mb 52f 51f
9:20pm 4.5ft 8s 6s 4 7 mph 1020.1mb 52f 51f
8:50pm 4.5ft 8s 6s 4 7 mph 1019.8mb 52f 51f
8:20pm 4.5ft 8s 7s 7 7 mph 1019.9mb 52f 51f
7:50pm 4.5ft 7s 6s 7 9 mph 1019.7mb 52f 51f
7:20pm 4.5ft 7s 6s 7 9 mph 1020mb 52f 51f
6:50pm 4.5ft 8s 6s 7 9 mph 1020.2mb 52f 52f
6:20pm 4.5ft 8s 7s 7 9 mph 1020.4mb 52f 52f
5:20pm 5.5ft 8s 7s 9 9 mph 1021.1mb 52f 52f
4:50pm 5.5ft 8s 7s 7 9 mph 1021.4mb 52f 52f
4:20pm 5ft 7s 7s 7 9 mph 1021.6mb 52f 52f
3:50pm 5.5ft 8s 7s 7 11 mph 1021.8mb 52f 52f
3:20pm 5ft 8s 7s 7 11 mph 1022mb 52f 52f
2:50pm 4.5ft 7s 7s 7 9 mph 1022.3mb 53f 52f
2:20pm 4.5ft 7s 7s 7 9 mph 1022.6mb 53f 53f
1:50pm 4.5ft 7s 7s 7 9 mph 1022.8mb 53f 52f
1:20pm 5ft 7s 7s 9 11 mph 1023mb 52f 51f
12:50pm 5ft 8s 7s 7 9 mph 1023.2mb 53f 51f
12:20pm 5ft 8s 7s 4 7 mph 1023.4mb 52f 51f
11:50am 4.5ft 7s 6s 4 7 mph 1023.5mb 52f 51f
11:20am 4.5ft 8s 6s 4 4 mph 1023.6mb 52f 51f
10:50am 3.5ft 8s 6s 4 7 mph 1023.7mb 52f 51f
10:20am 4ft 6s 6s 2 4 mph 1023.6mb 52f 51f
9:50am 4ft 7s 6s  -  2 mph 1023.4mb 52f 51f
9:20am 4.5ft 7s 6s 2 4 mph 1023.2mb 52f 51f
8:50am 4.5ft 7s 6s 2 2 mph 1023.4mb 51f 51f
8:20am 4.5ft 7s 6s  -  2 mph 1023.6mb 51f 51f
7:50am 4.5ft 6s 6s 2 2 mph 1023.7mb 51f 52f
7:20am 4.5ft 7s 6s  -  2 mph 1023.5mb 51f 51f
6:50am 4ft 7s 6s 2 4 mph 1023.6mb 51f 51f
6:20am 5ft 7s 6s 7 7 mph 1023.3mb 51f 52f
5:50am 4.5ft 7s 6s 2 4 mph 1023.3mb 51f 51f
5:20am 4ft 8s 6s 4 7 mph 1023mb 51f 51f
4:50am 4.5ft 7s 6s 7 7 mph 1022.8mb 52f 52f
4:20am 4.5ft 7s 6s 9 11 mph 1022.9mb 52f 52f
3:50am 4.5ft 8s 6s 7 9 mph 1023.1mb 52f 52f
3:20am 5ft 7s 7s 7 7 mph 1022.9mb 52f 52f
2:50am 5ft 7s 7s 7 9 mph 1023.2mb 52f 53f
2:20am 4.5ft 7s 7s 9 9 mph 1023.1mb 52f 53f
1:50am 4.5ft 8s 7s 7 9 mph 1023.2mb 52f 53f
1:20am 4ft 8s 7s 9 11 mph 1023.3mb 53f 53f
12:50am 4ft 7s 7s 9 11 mph 1023.3mb 53f 53f
12:20am 4ft 6s 6s 9 13 mph 1023.4mb 53f 54f
Fri 08/17 11:50pm 4ft 7s 6s 9 11 mph 1023.4mb 53f 53f
11:20pm 3.5ft 7s 6s 11 11 mph 1023.2mb 53f 53f
10:50pm 4ft 6s 6s 9 11 mph 1023.4mb 53f 53f
10:20pm 3.5ft 7s 6s 9 11 mph 1023.5mb 53f 54f
9:20pm 3.5ft 7s 6s 4 7 mph 1023.4mb 53f 53f
8:50pm 3.5ft 6s 6s 7 7 mph 1023.2mb 53f 54f
8:20pm 4ft 7s 6s 7 7 mph 1023.1mb 53f 54f
7:50pm 4.5ft 6s 6s 7 9 mph 1023.1mb 53f 54f
7:20pm 4ft 6s 6s 7 9 mph 1023.1mb 53f 55f
6:50pm 4ft 7s 6s 4 7 mph 1023.2mb 53f 55f
6:20pm 4.5ft 7s 6s 4 7 mph 1023.3mb 53f 55f
5:50pm 5ft 7s 6s 7 7 mph 1023.5mb 54f 55f
5:20pm 4.5ft 7s 6s 7 9 mph 1023.5mb 54f 55f
4:50pm 4.5ft 7s 6s 4 7 mph 1023.6mb 54f 55f
4:20pm 4.5ft 7s 6s 7 7 mph 1023.8mb 54f 55f
3:50pm 5ft 8s 6s 4 7 mph 1023.9mb 54f 55f
3:20pm 4.5ft 7s 6s 4 4 mph 1023.8mb 54f 55f
2:50pm 4.5ft 7s 6s 2 2 mph 1023.7mb 54f 55f
2:20pm 4.5ft 8s 7s  -  2 mph 1023.6mb 53f 56f
1:50pm 4.5ft 8s 6s 2 2 mph 1023.8mb 53f 55f
1:20pm 4.5ft 7s 7s 2 2 mph 1023.7mb 53f 55f
12:50pm 4.5ft 8s 7s 4 7 mph 1023.9mb 52f 54f
12:20pm 5ft 7s 7s 7 9 mph 1023.8mb 52f 56f
11:20am 5ft 7s 6s  -  2 mph 1023.7mb 52f 55f
10:50am 5ft 8s 7s 4 4 mph 1023.6mb 52f 55f
10:20am 5ft 8s 7s 7 9 mph 1023.5mb 52f 54f
9:50am 5ft 7s 6s 4 9 mph 1023.2mb 51f 54f
9:20am 5ft 8s 7s 4 9 mph 1023.2mb 51f 54f
8:50am 4.5ft 7s 6s 4 9 mph 1022.8mb 51f 54f
8:20am 5ft 8s 7s 4 9 mph 1022.7mb 51f 53f
7:50am 5ft 7s 6s 7 9 mph 1022.5mb 51f 53f
7:20am 5ft 8s 6s 4 7 mph 1022.3mb 51f 54f
6:50am 5ft 8s 6s 7 9 mph 1021.9mb 51f 53f
6:20am 5ft 7s 6s 7 7 mph 1021.7mb 51f 53f
5:50am 5ft 8s 6s 4 7 mph 1021.6mb 51f 53f
5:20am 5ft 7s 6s 4 4 mph 1021.5mb 52f 53f
4:50am 5.5ft 7s 6s 4 7 mph 1021.6mb 51f 53f
4:20am 6ft 7s 7s 4 7 mph 1021.6mb 51f 53f
3:50am 6ft 7s 7s 2 4 mph 1021.5mb 51f 54f
3:20am 5ft 7s 7s 2 2 mph 1021.3mb 51f 53f
2:20am 5ft 7s 7s  -  2 mph 1021.3mb 52f 53f
1:50am 5ft 7s 7s 4 7 mph 1021.3mb 52f 53f
1:20am 5ft 7s 7s 4 7 mph 1021.2mb 52f 53f
12:50am 5ft 10s 7s 7 7 mph 1021.2mb 52f 54f
12:20am 4.5ft 8s 7s 7 9 mph 1021mb 52f 54f
Thu 08/16 11:50pm 5ft 7s 7s 7 9 mph 1021.1mb 52f 54f
11:20pm 5ft 7s 7s 7 9 mph 1020.9mb 52f 54f
10:50pm 5ft 8s 6s 7 9 mph 1020.6mb 52f 54f
10:20pm 4.5ft 8s 6s 7 9 mph 1020.5mb 52f 54f
9:50pm 5ft 7s 6s 7 9 mph 1020.5mb 52f 55f
9:20pm 5ft 7s 7s 7 7 mph 1020.1mb 52f 55f
8:50pm 4.5ft 7s 6s 4 7 mph 1020mb 52f 54f
8:20pm 5ft 8s 7s 4 7 mph 1019.8mb 52f 53f